createdAt,value
2017-10-15T00:00:49.727Z,12.93
2017-10-15T00:03:15.476Z,12.92
2017-10-15T00:05:41.243Z,12.89
2017-10-15T00:08:07.031Z,12.83
2017-10-15T00:10:32.776Z,12.87
2017-10-15T00:12:58.636Z,12.86
2017-10-15T00:15:24.395Z,12.86
2017-10-15T00:17:50.147Z,12.88
2017-10-15T00:20:15.919Z,12.93
2017-10-15T00:22:41.723Z,12.94
2017-10-15T00:25:07.519Z,12.95
2017-10-15T00:27:33.307Z,12.91
2017-10-15T00:29:59.119Z,12.87
2017-10-15T00:32:24.875Z,12.84
2017-10-15T00:34:50.618Z,12.79
2017-10-15T00:37:16.427Z,12.68
2017-10-15T00:39:42.207Z,12.64
2017-10-15T00:42:07.971Z,12.55
2017-10-15T00:44:33.735Z,12.52
2017-10-15T00:46:59.503Z,12.52
2017-10-15T00:49:25.252Z,12.54
2017-10-15T00:51:51.011Z,12.55
2017-10-15T00:54:16.797Z,12.50
2017-10-15T00:56:42.583Z,12.55
2017-10-15T00:59:08.367Z,12.47
2017-10-15T01:01:34.219Z,12.49
2017-10-15T01:04:00.035Z,12.49
2017-10-15T01:06:25.823Z,12.46
2017-10-15T01:08:51.692Z,12.35
2017-10-15T01:11:17.443Z,12.41
2017-10-15T01:13:43.239Z,12.43
2017-10-15T01:16:09.062Z,12.42
2017-10-15T01:18:34.839Z,12.39
2017-10-15T01:21:00.650Z,12.43
2017-10-15T01:23:26.439Z,12.39
2017-10-15T01:25:52.191Z,12.45
2017-10-15T01:28:17.986Z,12.43
2017-10-15T01:30:43.756Z,12.46
2017-10-15T01:33:09.540Z,12.43
2017-10-15T01:35:35.327Z,12.40
2017-10-15T01:38:01.192Z,12.38
2017-10-15T01:40:26.947Z,12.52
2017-10-15T01:42:52.756Z,12.55
2017-10-15T01:45:18.587Z,12.51
2017-10-15T01:47:44.394Z,12.48
2017-10-15T01:50:10.195Z,12.35
2017-10-15T01:52:35.983Z,12.29
2017-10-15T01:55:01.788Z,12.26
2017-10-15T01:57:27.598Z,12.25
2017-10-15T01:59:53.398Z,12.18
2017-10-15T02:02:19.154Z,12.15
2017-10-15T02:04:44.938Z,12.15
2017-10-15T02:07:10.707Z,12.12
2017-10-15T02:09:36.532Z,12.09
2017-10-15T02:12:02.289Z,12.07
2017-10-15T02:14:28.147Z,12.03
2017-10-15T02:16:53.931Z,12.07
2017-10-15T02:19:19.703Z,12.08
2017-10-15T02:21:45.510Z,12.06
2017-10-15T02:24:11.301Z,12.08
2017-10-15T02:26:37.036Z,12.09
2017-10-15T02:29:02.823Z,12.17
2017-10-15T02:31:28.562Z,12.17
2017-10-15T02:33:54.305Z,12.24
2017-10-15T02:36:20.084Z,12.25
2017-10-15T02:38:45.875Z,12.23
2017-10-15T02:41:11.757Z,12.12
2017-10-15T02:43:37.523Z,12.16
2017-10-15T02:46:03.324Z,12.20
2017-10-15T02:48:29.203Z,12.21
2017-10-15T02:50:54.983Z,12.21
2017-10-15T02:53:20.827Z,12.35
2017-10-15T02:55:46.571Z,12.40
2017-10-15T02:58:12.330Z,12.47
2017-10-15T03:00:38.075Z,12.49
2017-10-15T03:03:03.815Z,12.40
2017-10-15T03:05:29.587Z,12.32
2017-10-15T03:07:55.329Z,12.20
2017-10-15T03:10:21.098Z,12.18
2017-10-15T03:12:46.875Z,12.15
2017-10-15T03:15:12.655Z,12.01
2017-10-15T03:17:38.431Z,11.90
2017-10-15T03:20:04.175Z,11.87
2017-10-15T03:22:30.003Z,11.78
2017-10-15T03:24:55.762Z,11.78
2017-10-15T03:27:21.516Z,11.64
2017-10-15T03:29:47.291Z,11.56
2017-10-15T03:32:13.039Z,11.55
2017-10-15T03:34:38.830Z,11.56
2017-10-15T03:37:04.595Z,11.56
2017-10-15T03:39:30.416Z,11.46
2017-10-15T03:41:56.158Z,11.44
2017-10-15T03:44:21.905Z,11.49
2017-10-15T03:46:47.750Z,11.46
2017-10-15T03:49:13.502Z,11.51
2017-10-15T03:51:39.268Z,11.56
2017-10-15T03:54:05.001Z,11.56
2017-10-15T03:56:30.758Z,11.57
2017-10-15T03:58:56.596Z,11.37
2017-10-15T04:01:22.379Z,11.32
2017-10-15T04:03:48.135Z,11.15
2017-10-15T04:06:13.866Z,11.25
2017-10-15T04:08:39.651Z,11.27
2017-10-15T04:11:05.391Z,11.25
2017-10-15T04:13:31.215Z,11.27
2017-10-15T04:15:57.006Z,11.31
2017-10-15T04:18:22.809Z,11.30
2017-10-15T04:20:48.603Z,11.29
2017-10-15T04:23:14.391Z,11.29
2017-10-15T04:25:40.241Z,11.31
2017-10-15T04:28:06.019Z,11.34
2017-10-15T04:30:31.779Z,11.33
2017-10-15T04:32:57.555Z,11.22
2017-10-15T04:35:23.306Z,11.16
2017-10-15T04:37:49.043Z,11.17
2017-10-15T04:40:14.875Z,11.23
2017-10-15T04:42:40.659Z,11.21
2017-10-15T04:45:06.414Z,11.24
2017-10-15T04:47:32.176Z,11.24
2017-10-15T04:49:57.943Z,11.29
2017-10-15T04:52:23.698Z,11.19
2017-10-15T04:54:49.434Z,11.35
2017-10-15T04:57:15.252Z,11.43
2017-10-15T04:59:41.095Z,11.52
2017-10-15T05:02:06.852Z,11.52
2017-10-15T05:04:32.607Z,11.69
2017-10-15T05:06:58.362Z,11.90
2017-10-15T05:09:24.116Z,11.97
2017-10-15T05:11:49.914Z,12.17
2017-10-15T05:14:15.687Z,12.16
2017-10-15T05:16:41.442Z,11.91
2017-10-15T05:19:07.187Z,11.78
2017-10-15T05:21:32.963Z,11.75
2017-10-15T05:23:58.749Z,11.69
2017-10-15T05:26:24.494Z,11.66
2017-10-15T05:28:50.263Z,11.61
2017-10-15T05:31:15.998Z,11.63
2017-10-15T05:33:41.867Z,11.69
2017-10-15T05:36:07.647Z,11.86
2017-10-15T05:38:33.411Z,11.97
2017-10-15T05:40:59.197Z,12.05
2017-10-15T05:43:24.972Z,12.15
2017-10-15T05:45:50.863Z,12.27
2017-10-15T05:48:16.615Z,12.44
2017-10-15T05:50:42.391Z,12.53
2017-10-15T05:53:08.218Z,12.49
2017-10-15T05:55:33.983Z,12.50
2017-10-15T05:57:59.771Z,12.59
2017-10-15T06:00:25.519Z,12.75
2017-10-15T06:02:51.303Z,12.84
2017-10-15T06:05:17.123Z,12.93
2017-10-15T06:07:42.895Z,12.90
2017-10-15T06:10:08.688Z,12.88
2017-10-15T06:12:34.465Z,12.96
2017-10-15T06:15:00.231Z,12.91
2017-10-15T06:17:26.008Z,12.94
2017-10-15T06:19:51.773Z,12.67
2017-10-15T06:22:17.596Z,12.74
2017-10-15T06:24:43.381Z,12.90
2017-10-15T06:27:09.188Z,13.04
2017-10-15T06:29:34.955Z,13.17
2017-10-15T06:32:00.740Z,13.27
2017-10-15T06:34:26.531Z,13.40
2017-10-15T06:36:52.311Z,13.47
2017-10-15T06:39:18.080Z,13.60
2017-10-15T06:41:43.866Z,13.91
2017-10-15T06:44:09.598Z,14.46
2017-10-15T06:46:35.354Z,15.37
2017-10-15T06:49:01.140Z,16.11
2017-10-15T06:51:26.883Z,16.99
2017-10-15T06:53:52.643Z,17.95
2017-10-15T06:56:18.421Z,18.71
2017-10-15T06:58:44.185Z,19.19
2017-10-15T07:01:09.987Z,19.26
2017-10-15T07:03:35.764Z,19.84
2017-10-15T07:06:01.512Z,20.48
2017-10-15T07:08:27.282Z,20.95
2017-10-15T07:10:53.040Z,21.11
2017-10-15T07:13:18.810Z,21.18
2017-10-15T07:15:44.567Z,21.34
2017-10-15T07:18:10.330Z,21.17
2017-10-15T07:20:36.108Z,20.83
2017-10-15T07:23:01.915Z,21.32
2017-10-15T07:25:27.671Z,22.22
2017-10-15T07:27:53.423Z,22.74
2017-10-15T07:30:19.219Z,23.38
2017-10-15T07:32:44.987Z,23.74
2017-10-15T07:35:10.772Z,23.64
2017-10-15T07:37:36.524Z,23.58
2017-10-15T07:40:02.319Z,23.54
2017-10-15T07:42:28.087Z,23.65
2017-10-15T07:44:53.855Z,23.80
2017-10-15T07:47:19.783Z,23.89
2017-10-15T07:49:45.590Z,24.15
2017-10-15T07:52:11.348Z,24.47
2017-10-15T07:54:37.131Z,24.72
2017-10-15T07:57:02.915Z,25.15
2017-10-15T07:59:28.763Z,25.35
2017-10-15T08:01:54.510Z,25.78
2017-10-15T08:04:20.295Z,26.06
2017-10-15T08:06:46.063Z,26.51
2017-10-15T08:09:11.803Z,27.20
2017-10-15T08:11:37.591Z,27.48
2017-10-15T08:14:03.408Z,27.68
2017-10-15T08:16:29.158Z,28.01
2017-10-15T08:18:54.939Z,27.91
2017-10-15T08:21:20.676Z,27.82
2017-10-15T08:23:46.443Z,28.14
2017-10-15T08:26:12.207Z,28.38
2017-10-15T08:28:38.038Z,28.54
2017-10-15T08:31:03.807Z,27.95
2017-10-15T08:33:29.630Z,27.58
2017-10-15T08:35:55.387Z,27.25
2017-10-15T08:38:21.131Z,27.17
2017-10-15T08:40:46.953Z,26.99
2017-10-15T08:43:12.783Z,27.21
2017-10-15T08:45:38.560Z,27.33
2017-10-15T08:48:04.288Z,27.55
2017-10-15T08:50:30.071Z,27.68
2017-10-15T08:52:55.839Z,28.17
2017-10-15T08:55:21.607Z,28.78
2017-10-15T08:57:47.384Z,28.70
2017-10-15T09:00:13.142Z,27.67
2017-10-15T09:02:38.931Z,27.31
2017-10-15T09:05:04.690Z,27.00
2017-10-15T09:07:30.581Z,27.31
2017-10-15T09:09:56.331Z,27.28
2017-10-15T09:12:22.092Z,27.60
2017-10-15T09:14:47.835Z,28.48
2017-10-15T09:17:13.572Z,28.35
2017-10-15T09:19:39.338Z,28.51
2017-10-15T09:22:06.789Z,28.64
2017-10-15T09:24:32.592Z,28.90
2017-10-15T09:26:58.364Z,28.80
2017-10-15T09:29:24.111Z,29.47
2017-10-15T09:31:49.947Z,29.53
2017-10-15T09:34:15.699Z,29.89
2017-10-15T09:36:41.438Z,29.92
2017-10-15T09:39:07.214Z,30.52
2017-10-15T09:41:32.979Z,30.66
2017-10-15T09:43:58.718Z,31.42
2017-10-15T09:46:24.491Z,31.56
2017-10-15T09:48:50.237Z,31.76
2017-10-15T09:51:16.007Z,32.03
2017-10-15T09:53:41.840Z,32.08
2017-10-15T09:56:07.592Z,32.20
2017-10-15T09:58:33.346Z,32.12
2017-10-15T10:00:59.111Z,31.90
2017-10-15T10:03:24.881Z,31.85
2017-10-15T10:05:50.647Z,32.16
2017-10-15T10:08:16.408Z,32.30
2017-10-15T10:10:42.184Z,31.58
2017-10-15T10:13:08.951Z,31.74
2017-10-15T10:15:34.698Z,31.14
2017-10-15T10:18:00.462Z,30.49
2017-10-15T10:20:26.218Z,30.57
2017-10-15T10:22:51.965Z,31.44
2017-10-15T10:25:17.775Z,31.56
2017-10-15T10:27:43.535Z,32.24
2017-10-15T10:30:09.317Z,32.35
2017-10-15T10:32:35.083Z,31.86
2017-10-15T10:35:00.844Z,32.30
2017-10-15T10:37:26.587Z,31.66
2017-10-15T10:39:52.389Z,31.68
2017-10-15T10:42:18.150Z,32.10
2017-10-15T10:44:43.916Z,32.24
2017-10-15T10:47:09.667Z,32.45
2017-10-15T10:49:35.419Z,31.39
2017-10-15T10:52:01.211Z,31.19
2017-10-15T10:54:26.951Z,30.55
2017-10-15T10:56:52.722Z,30.02
2017-10-15T10:59:18.499Z,29.27
2017-10-15T11:01:44.271Z,29.64
2017-10-15T11:04:10.030Z,30.57
2017-10-15T11:06:35.772Z,30.83
2017-10-15T11:09:01.600Z,31.51
2017-10-15T11:11:27.388Z,30.96
2017-10-15T11:13:53.128Z,30.25
2017-10-15T11:16:18.890Z,30.05
2017-10-15T11:18:44.663Z,30.65
2017-10-15T11:21:10.469Z,31.36
2017-10-15T11:23:36.219Z,31.93
2017-10-15T11:26:01.987Z,31.91
2017-10-15T11:28:27.741Z,30.92
2017-10-15T11:30:53.528Z,31.10
2017-10-15T11:33:19.263Z,31.71
2017-10-15T11:35:45.012Z,31.38
2017-10-15T11:38:10.776Z,31.61
2017-10-15T11:40:36.561Z,30.31
2017-10-15T11:43:02.311Z,30.34
2017-10-15T11:45:28.109Z,30.95
2017-10-15T11:47:53.870Z,31.06
2017-10-15T11:50:19.803Z,31.44
2017-10-15T11:52:45.563Z,31.89
2017-10-15T11:55:11.342Z,31.84
2017-10-15T11:57:37.099Z,31.70
2017-10-15T12:00:02.887Z,31.56
2017-10-15T12:02:29.296Z,31.70
2017-10-15T12:04:55.055Z,32.16
2017-10-15T12:07:20.800Z,32.50
2017-10-15T12:09:46.605Z,32.47
2017-10-15T12:12:12.365Z,32.68
2017-10-15T12:14:38.127Z,32.82
2017-10-15T12:17:04.807Z,33.05
2017-10-15T12:19:30.555Z,33.26
2017-10-15T12:21:56.322Z,33.38
2017-10-15T12:24:22.078Z,33.40
2017-10-15T12:26:47.838Z,33.11
2017-10-15T12:29:13.638Z,33.25
2017-10-15T12:31:39.416Z,33.10
2017-10-15T12:34:05.143Z,32.83
2017-10-15T12:36:30.937Z,32.85
2017-10-15T12:38:56.699Z,32.64
2017-10-15T12:41:22.479Z,32.56
2017-10-15T12:43:48.272Z,32.50
2017-10-15T12:46:14.020Z,32.60
2017-10-15T12:48:39.803Z,32.63
2017-10-15T12:51:05.574Z,32.63
2017-10-15T12:53:31.335Z,32.87
2017-10-15T12:55:57.113Z,32.63
2017-10-15T12:58:22.891Z,32.69
2017-10-15T13:00:48.662Z,32.55
2017-10-15T13:03:37.848Z,32.49
2017-10-15T13:22:49.387Z,32.71
2017-10-15T13:25:38.735Z,32.77
2017-10-15T13:44:50.253Z,32.04
2017-10-15T13:47:38.930Z,31.83
2017-10-15T13:50:36.311Z,32.18
2017-10-15T14:09:46.249Z,32.35
2017-10-15T14:28:57.819Z,32.03
2017-10-15T14:48:32.271Z,31.68
2017-10-15T14:50:58.041Z,31.43
2017-10-15T15:10:33.242Z,31.21
2017-10-15T15:29:43.247Z,31.00
2017-10-15T15:48:54.543Z,30.36
2017-10-15T15:51:51.294Z,30.10
2017-10-15T16:11:06.515Z,28.24
2017-10-15T16:14:03.202Z,27.86
2017-10-15T16:17:00.174Z,27.54
2017-10-15T16:19:33.475Z,27.19
2017-10-15T16:22:22.584Z,26.76
2017-10-15T16:25:19.933Z,26.32
2017-10-15T16:28:17.480Z,25.83
2017-10-15T16:31:14.723Z,25.34
2017-10-15T16:34:12.068Z,24.86
2017-10-15T16:37:09.650Z,24.40
2017-10-15T16:42:56.207Z,23.71
2017-10-15T16:45:45.287Z,23.49
2017-10-15T17:04:56.539Z,21.88
2017-10-15T17:07:45.791Z,21.88
2017-10-15T17:10:42.975Z,21.73
2017-10-15T17:13:40.066Z,21.60
2017-10-15T17:26:24.115Z,20.97
2017-10-15T17:29:13.946Z,20.82
2017-10-15T17:48:25.874Z,19.96
2017-10-15T18:08:00.759Z,19.30
2017-10-15T18:27:10.640Z,18.00
2017-10-15T18:46:21.480Z,18.01
2017-10-15T19:05:32.106Z,17.59
2017-10-15T19:18:01.856Z,17.37
2017-10-15T19:20:51.791Z,17.34
2017-10-15T19:23:48.712Z,17.32
2017-10-15T19:43:06.551Z,16.69
2017-10-15T20:02:42.451Z,16.39
2017-10-15T20:22:19.149Z,16.59
2017-10-15T20:41:37.276Z,16.75
2017-10-15T20:44:34.505Z,16.76
2017-10-15T21:03:46.787Z,16.65
2017-10-15T21:06:44.404Z,16.68
2017-10-15T21:09:10.240Z,16.55
2017-10-15T21:11:59.417Z,16.62
2017-10-15T21:14:57.371Z,16.70
2017-10-15T21:30:50.038Z,17.02
2017-10-15T21:33:39.150Z,17.03
2017-10-15T21:36:37.118Z,16.99
2017-10-15T21:52:29.152Z,17.09
2017-10-15T21:55:18.901Z,17.14
2017-10-15T21:58:16.049Z,17.03
2017-10-15T22:14:08.266Z,16.24
2017-10-15T22:16:57.925Z,16.17
2017-10-15T22:19:55.674Z,16.10
2017-10-15T22:22:53.124Z,16.03
2017-10-15T22:35:41.328Z,15.63
2017-10-15T22:38:30.800Z,15.64
2017-10-15T22:41:28.334Z,15.39
2017-10-15T22:44:26.107Z,15.41
2017-10-15T22:57:27.937Z,14.97
2017-10-15T23:00:17.606Z,14.88
2017-10-15T23:03:14.617Z,14.93
2017-10-15T23:19:03.691Z,14.63
2017-10-15T23:21:52.683Z,14.51
2017-10-15T23:24:49.846Z,14.44
2017-10-15T23:27:47.023Z,13.90
2017-10-15T23:30:44.585Z,13.70
2017-10-15T23:33:42.379Z,13.71
2017-10-15T23:36:39.807Z,13.76
2017-10-15T23:39:37.099Z,13.84
2017-10-15T23:58:48.994Z,13.72
